Skip Navigation Links Skip Navigation Links

Current Weather

Danbury Muni, Danbury, Conn.

For information only: do not use for flight planning or navigation.
Latest weather
Observation time Thursday, November 14, 2019 7:53 PM EST
Local time Thursday, November 14, 2019 8:08 PM EST
Flight conditions Visual Meteorological Conditions
Winds
Wind speed calm
Visibility 10 mi.
Sky condition
Ceiling unlimited
Sky clear
Temperature 32°F
Dewpoint 25°F
Altimeter 30.29 in.Hg
Derived measurements
Relative humidity 75%
Wind chill 32°F
Density altitude -1728 ft.
Sea-level pressure 30.30 in.Hg
Remarks
Automated weather observing station with precipitation discriminator.
METAR KDXR 150053Z 00000KT 10SM CLR 00/M04 A3029 RMK AO2 SLP262 T00001039

Settings

Location code

InnerDrive.Weather 4.0.6770.0 Release CLR 4.0.30319.42000
Copyright ©2018 Inner Drive Technology. All rights reserved. Portions Copyright ©1986-2018 David Braverman.

Find weather

Site navigation


Skip Navigation Links

Place info

Page info

PayPal - The safer, easier way to pay online!

Return home.

Copyright ©2019 Inner Drive Technology. Purveyors of fine, hand-crafted computer software. Page printed 2019-11-15T01:08:26 UTC.